sensor_id;sensor_type;location;lat;lon;timestamp;pressure;altitude;pressure_sealevel;temperature;humidity
78751;BME280;68070;50.954;11.060;2023-04-01T00:01:12;97251.25;;;8.99;75.22
78751;BME280;68070;50.954;11.060;2023-04-01T00:04:00;97251.59;;;9.03;74.72
78751;BME280;68070;50.954;11.060;2023-04-01T00:06:46;97251.13;;;9.11;74.50
78751;BME280;68070;50.954;11.060;2023-04-01T00:09:31;97251.16;;;9.09;74.39
78751;BME280;68070;50.954;11.060;2023-04-01T00:12:16;97252.88;;;9.04;74.48
78751;BME280;68070;50.954;11.060;2023-04-01T00:15:01;97252.02;;;9.09;74.33
78751;BME280;68070;50.954;11.060;2023-04-01T00:17:46;97245.81;;;9.15;74.06
78751;BME280;68070;50.954;11.060;2023-04-01T00:20:30;97247.28;;;9.10;74.31
78751;BME280;68070;50.954;11.060;2023-04-01T00:23:16;97246.33;;;9.09;74.60
78751;BME280;68070;50.954;11.060;2023-04-01T00:26:01;97244.93;;;9.09;74.65
78751;BME280;68070;50.954;11.060;2023-04-01T00:28:46;97244.03;;;9.05;74.37
78751;BME280;68070;50.954;11.060;2023-04-01T00:31:31;97244.48;;;9.14;73.87
78751;BME280;68070;50.954;11.060;2023-04-01T00:34:16;97242.73;;;9.17;73.69
78751;BME280;68070;50.954;11.060;2023-04-01T00:37:00;97243.17;;;9.13;73.91
78751;BME280;68070;50.954;11.060;2023-04-01T00:39:45;97243.80;;;9.15;73.72
78751;BME280;68070;50.954;11.060;2023-04-01T00:42:29;97243.80;;;9.17;73.85
78751;BME280;68070;50.954;11.060;2023-04-01T00:45:32;97243.63;;;9.13;73.84
78751;BME280;68070;50.954;11.060;2023-04-01T00:48:23;97243.21;;;9.18;73.80
78751;BME280;68070;50.954;11.060;2023-04-01T00:51:14;97246.84;;;9.19;73.62
78751;BME280;68070;50.954;11.060;2023-04-01T00:54:00;97242.83;;;9.13;73.92
78751;BME280;68070;50.954;11.060;2023-04-01T00:56:50;97243.35;;;9.13;73.81
78751;BME280;68070;50.954;11.060;2023-04-01T00:59:43;97245.69;;;9.16;73.83
78751;BME280;68070;50.954;11.060;2023-04-01T01:02:28;97244.95;;;9.13;73.63
78751;BME280;68070;50.954;11.060;2023-04-01T01:05:14;97245.98;;;9.15;73.75
78751;BME280;68070;50.954;11.060;2023-04-01T01:10:59;97250.56;;;9.12;73.67
78751;BME280;68070;50.954;11.060;2023-04-01T01:13:58;97248.62;;;9.11;73.83
78751;BME280;68070;50.954;11.060;2023-04-01T01:16:52;97247.05;;;9.13;73.71
78751;BME280;68070;50.954;11.060;2023-04-01T01:23:06;97244.70;;;9.08;73.49
78751;BME280;68070;50.954;11.060;2023-04-01T01:38:11;97235.40;;;9.16;72.66
78751;BME280;68070;50.954;11.060;2023-04-01T01:41:00;97232.05;;;9.17;73.32
78751;BME280;68070;50.954;11.060;2023-04-01T01:43:48;97232.99;;;9.12;73.43
78751;BME280;68070;50.954;11.060;2023-04-01T01:46:35;97226.78;;;9.04;73.76
78751;BME280;68070;50.954;11.060;2023-04-01T01:49:23;97234.02;;;9.06;73.46
78751;BME280;68070;50.954;11.060;2023-04-01T01:52:09;97230.61;;;9.13;73.12
78751;BME280;68070;50.954;11.060;2023-04-01T01:54:55;97230.63;;;9.06;73.46
78751;BME280;68070;50.954;11.060;2023-04-01T01:57:44;97233.25;;;9.01;73.63
78751;BME280;68070;50.954;11.060;2023-04-01T02:00:34;97231.48;;;9.07;73.26
78751;BME280;68070;50.954;11.060;2023-04-01T02:03:21;97230.16;;;9.06;73.01
78751;BME280;68070;50.954;11.060;2023-04-01T02:06:10;97235.05;;;8.99;73.25
78751;BME280;68070;50.954;11.060;2023-04-01T02:09:02;97231.64;;;9.05;72.91
78751;BME280;68070;50.954;11.060;2023-04-01T02:11:53;97231.74;;;9.04;73.11
78751;BME280;68070;50.954;11.060;2023-04-01T02:14:47;97231.53;;;8.95;73.74
78751;BME280;68070;50.954;11.060;2023-04-01T02:17:39;97229.13;;;8.95;73.48
78751;BME280;68070;50.954;11.060;2023-04-01T02:20:25;97226.69;;;8.97;73.21
78751;BME280;68070;50.954;11.060;2023-04-01T02:23:11;97225.14;;;8.95;73.10
78751;BME280;68070;50.954;11.060;2023-04-01T02:25:56;97226.30;;;9.00;73.10
78751;BME280;68070;50.954;11.060;2023-04-01T02:28:42;97225.80;;;8.94;73.03
78751;BME280;68070;50.954;11.060;2023-04-01T02:31:29;97223.41;;;8.95;72.90
78751;BME280;68070;50.954;11.060;2023-04-01T02:34:14;97224.73;;;8.97;72.82
78751;BME280;68070;50.954;11.060;2023-04-01T02:36:59;97231.91;;;8.93;72.78
78751;BME280;68070;50.954;11.060;2023-04-01T02:39:44;97234.48;;;8.94;72.87
78751;BME280;68070;50.954;11.060;2023-04-01T02:42:28;97237.00;;;8.90;73.17
78751;BME280;68070;50.954;11.060;2023-04-01T02:45:13;97238.22;;;8.85;73.37
78751;BME280;68070;50.954;11.060;2023-04-01T02:47:59;97237.70;;;8.86;73.12
78751;BME280;68070;50.954;11.060;2023-04-01T02:50:44;97238.77;;;8.86;72.92
78751;BME280;68070;50.954;11.060;2023-04-01T02:53:29;97240.38;;;8.85;72.97
78751;BME280;68070;50.954;11.060;2023-04-01T02:56:13;97242.15;;;8.88;73.05
78751;BME280;68070;50.954;11.060;2023-04-01T02:58:57;97245.85;;;8.83;73.16
78751;BME280;68070;50.954;11.060;2023-04-01T03:01:41;97243.96;;;8.80;73.10
78751;BME280;68070;50.954;11.060;2023-04-01T03:04:26;97243.52;;;8.87;72.88
78751;BME280;68070;50.954;11.060;2023-04-01T03:07:10;97243.17;;;8.87;72.79
78751;BME280;68070;50.954;11.060;2023-04-01T03:09:54;97240.99;;;8.80;72.96
78751;BME280;68070;50.954;11.060;2023-04-01T03:12:40;97241.10;;;8.85;72.82
78751;BME280;68070;50.954;11.060;2023-04-01T03:15:24;97238.08;;;8.87;72.85
78751;BME280;68070;50.954;11.060;2023-04-01T03:18:09;97236.56;;;8.80;73.24
78751;BME280;68070;50.954;11.060;2023-04-01T03:20:54;97239.83;;;8.75;73.32
78751;BME280;68070;50.954;11.060;2023-04-01T03:23:39;97235.68;;;8.76;73.55
78751;BME280;68070;50.954;11.060;2023-04-01T03:26:24;97233.88;;;8.73;73.49
78751;BME280;68070;50.954;11.060;2023-04-01T03:29:10;97235.80;;;8.73;73.33
78751;BME280;68070;50.954;11.060;2023-04-01T03:31:56;97234.17;;;8.77;73.14
78751;BME280;68070;50.954;11.060;2023-04-01T03:34:42;97238.30;;;8.70;73.31
78751;BME280;68070;50.954;11.060;2023-04-01T03:37:26;97236.75;;;8.69;73.40
78751;BME280;68070;50.954;11.060;2023-04-01T03:40:11;97242.73;;;8.68;73.35
78751;BME280;68070;50.954;11.060;2023-04-01T03:42:56;97237.48;;;8.59;73.63
78751;BME280;68070;50.954;11.060;2023-04-01T03:45:51;97236.96;;;8.57;73.95
78751;BME280;68070;50.954;11.060;2023-04-01T03:48:35;97236.53;;;8.52;73.92
78751;BME280;68070;50.954;11.060;2023-04-01T03:51:20;97238.17;;;8.46;74.12
78751;BME280;68070;50.954;11.060;2023-04-01T03:54:04;97241.85;;;8.53;73.91
78751;BME280;68070;50.954;11.060;2023-04-01T03:56:49;97238.69;;;8.52;73.94
78751;BME280;68070;50.954;11.060;2023-04-01T03:59:34;97244.67;;;8.47;74.26
78751;BME280;68070;50.954;11.060;2023-04-01T04:02:19;97242.94;;;8.50;73.99
78751;BME280;68070;50.954;11.060;2023-04-01T04:05:04;97245.60;;;8.52;73.69
78751;BME280;68070;50.954;11.060;2023-04-01T04:07:49;97247.73;;;8.43;74.27
78751;BME280;68070;50.954;11.060;2023-04-01T04:10:34;97250.36;;;8.45;74.21
78751;BME280;68070;50.954;11.060;2023-04-01T04:13:19;97253.33;;;8.45;74.22
78751;BME280;68070;50.954;11.060;2023-04-01T04:16:08;97258.17;;;8.41;74.31
78751;BME280;68070;50.954;11.060;2023-04-01T04:18:55;97258.50;;;8.50;73.94
78751;BME280;68070;50.954;11.060;2023-04-01T04:21:40;97261.63;;;8.51;74.13
78751;BME280;68070;50.954;11.060;2023-04-01T04:24:25;97264.14;;;8.47;73.87
78751;BME280;68070;50.954;11.060;2023-04-01T04:27:24;97264.71;;;8.55;73.59
78751;BME280;68070;50.954;11.060;2023-04-01T04:30:15;97267.16;;;8.53;73.95
78751;BME280;68070;50.954;11.060;2023-04-01T04:32:59;97269.86;;;8.45;74.21
78751;BME280;68070;50.954;11.060;2023-04-01T04:35:43;97267.05;;;8.43;74.22
78751;BME280;68070;50.954;11.060;2023-04-01T04:38:27;97269.86;;;8.45;74.39
78751;BME280;68070;50.954;11.060;2023-04-01T04:41:14;97271.92;;;8.40;74.64
78751;BME280;68070;50.954;11.060;2023-04-01T04:43:59;97272.50;;;8.43;74.44
78751;BME280;68070;50.954;11.060;2023-04-01T04:46:44;97272.71;;;8.53;73.94
78751;BME280;68070;50.954;11.060;2023-04-01T04:49:31;97274.40;;;8.57;73.58
78751;BME280;68070;50.954;11.060;2023-04-01T04:52:16;97274.46;;;8.53;73.85
78751;BME280;68070;50.954;11.060;2023-04-01T04:55:00;97269.34;;;8.60;73.58
78751;BME280;68070;50.954;11.060;2023-04-01T04:57:45;97272.92;;;8.59;73.80
78751;BME280;68070;50.954;11.060;2023-04-01T05:00:29;97278.41;;;8.56;73.71
78751;BME280;68070;50.954;11.060;2023-04-01T05:03:17;97281.39;;;8.58;73.88
78751;BME280;68070;50.954;11.060;2023-04-01T05:06:01;97278.08;;;8.59;73.74
78751;BME280;68070;50.954;11.060;2023-04-01T05:08:46;97279.69;;;8.54;73.85
78751;BME280;68070;50.954;11.060;2023-04-01T05:11:31;97281.48;;;8.57;73.98
78751;BME280;68070;50.954;11.060;2023-04-01T05:14:16;97276.59;;;8.60;73.36
78751;BME280;68070;50.954;11.060;2023-04-01T05:17:05;97274.46;;;8.64;72.84
78751;BME280;68070;50.954;11.060;2023-04-01T05:19:52;97270.55;;;8.70;72.75
78751;BME280;68070;50.954;11.060;2023-04-01T05:22:36;97276.54;;;8.66;73.09
78751;BME280;68070;50.954;11.060;2023-04-01T05:25:21;97272.52;;;8.68;72.86
78751;BME280;68070;50.954;11.060;2023-04-01T05:28:05;97277.86;;;8.69;73.09
78751;BME280;68070;50.954;11.060;2023-04-01T05:30:49;97283.59;;;8.65;73.10
78751;BME280;68070;50.954;11.060;2023-04-01T05:33:48;97283.50;;;8.68;73.11
78751;BME280;68070;50.954;11.060;2023-04-01T05:36:32;97280.88;;;8.66;72.99
78751;BME280;68070;50.954;11.060;2023-04-01T05:39:16;97285.52;;;8.63;73.08
78751;BME280;68070;50.954;11.060;2023-04-01T05:42:02;97287.64;;;8.69;72.60
78751;BME280;68070;50.954;11.060;2023-04-01T05:44:46;97292.63;;;8.69;72.90
78751;BME280;68070;50.954;11.060;2023-04-01T05:48:06;97290.89;;;8.62;73.01
78751;BME280;68070;50.954;11.060;2023-04-01T05:50:55;97291.38;;;8.63;73.09
78751;BME280;68070;50.954;11.060;2023-04-01T05:53:39;97293.96;;;8.70;72.92
78751;BME280;68070;50.954;11.060;2023-04-01T05:56:23;97294.52;;;8.69;72.87
78751;BME280;68070;50.954;11.060;2023-04-01T05:59:11;97294.65;;;8.72;72.69
78751;BME280;68070;50.954;11.060;2023-04-01T06:01:55;97299.88;;;8.82;72.34
78751;BME280;68070;50.954;11.060;2023-04-01T06:04:40;97299.61;;;8.85;72.41
78751;BME280;68070;50.954;11.060;2023-04-01T06:07:27;97301.75;;;8.94;72.10
78751;BME280;68070;50.954;11.060;2023-04-01T06:10:14;97300.82;;;9.13;71.33
78751;BME280;68070;50.954;11.060;2023-04-01T06:34:42;97299.21;;;9.84;68.67
78751;BME280;68070;50.954;11.060;2023-04-01T06:43:49;97310.65;;;10.32;67.20
78751;BME280;68070;50.954;11.060;2023-04-01T06:47:14;97308.00;;;10.54;66.80
78751;BME280;68070;50.954;11.060;2023-04-01T06:54:32;97313.73;;;12.47;61.39
78751;BME280;68070;50.954;11.060;2023-04-01T06:57:43;97310.45;;;13.36;57.23
78751;BME280;68070;50.954;11.060;2023-04-01T07:00:40;97310.35;;;13.68;56.95
78751;BME280;68070;50.954;11.060;2023-04-01T07:03:38;97315.64;;;13.58;55.89
78751;BME280;68070;50.954;11.060;2023-04-01T07:06:35;97315.04;;;13.39;56.54
78751;BME280;68070;50.954;11.060;2023-04-01T07:09:27;97319.23;;;12.76;57.73
78751;BME280;68070;50.954;11.060;2023-04-01T07:12:46;97322.03;;;11.86;59.84
78751;BME280;68070;50.954;11.060;2023-04-01T07:18:58;97323.54;;;11.78;61.42
78751;BME280;68070;50.954;11.060;2023-04-01T07:21:56;97329.80;;;11.89;61.21
78751;BME280;68070;50.954;11.060;2023-04-01T07:24:51;97326.42;;;11.99;60.43
78751;BME280;68070;50.954;11.060;2023-04-01T07:27:37;97323.36;;;12.13;60.72
78751;BME280;68070;50.954;11.060;2023-04-01T07:30:23;97325.91;;;12.64;59.66
78751;BME280;68070;50.954;11.060;2023-04-01T07:36:26;97333.23;;;12.66;59.01
78751;BME280;68070;50.954;11.060;2023-04-01T07:45:47;97338.89;;;11.56;62.08
78751;BME280;68070;50.954;11.060;2023-04-01T07:48:57;97345.27;;;11.46;62.85
78751;BME280;68070;50.954;11.060;2023-04-01T07:54:50;97346.03;;;10.98;64.14
78751;BME280;68070;50.954;11.060;2023-04-01T07:57:43;97346.59;;;11.01;64.73
78751;BME280;68070;50.954;11.060;2023-04-01T08:00:40;97346.04;;;10.99;63.79
78751;BME280;68070;50.954;11.060;2023-04-01T08:03:48;97349.15;;;11.02;64.65
78751;BME280;68070;50.954;11.060;2023-04-01T08:16:41;97362.01;;;11.54;62.91
78751;BME280;68070;50.954;11.060;2023-04-01T08:19:56;97360.83;;;11.66;62.75
78751;BME280;68070;50.954;11.060;2023-04-01T08:29:18;97360.73;;;11.80;62.19
78751;BME280;68070;50.954;11.060;2023-04-01T08:32:28;97361.67;;;11.83;62.50
78751;BME280;68070;50.954;11.060;2023-04-01T08:35:17;97365.60;;;11.66;62.35
78751;BME280;68070;50.954;11.060;2023-04-01T08:38:13;97366.46;;;11.64;63.05
78751;BME280;68070;50.954;11.060;2023-04-01T08:44:58;97367.80;;;11.49;61.77
78751;BME280;68070;50.954;11.060;2023-04-01T08:57:39;97373.27;;;11.69;62.68
78751;BME280;68070;50.954;11.060;2023-04-01T09:01:34;97371.33;;;11.64;62.15
78751;BME280;68070;50.954;11.060;2023-04-01T09:17:01;97372.92;;;11.54;62.75
78751;BME280;68070;50.954;11.060;2023-04-01T09:35:24;97381.52;;;11.40;62.18
78751;BME280;68070;50.954;11.060;2023-04-01T09:44:58;97383.88;;;11.38;62.80
78751;BME280;68070;50.954;11.060;2023-04-01T09:48:05;97387.62;;;11.45;62.42
78751;BME280;68070;50.954;11.060;2023-04-01T09:57:36;97389.65;;;11.95;60.90
78751;BME280;68070;50.954;11.060;2023-04-01T10:03:46;97394.11;;;12.15;61.44
78751;BME280;68070;50.954;11.060;2023-04-01T10:16:01;97399.19;;;11.89;60.86
78751;BME280;68070;50.954;11.060;2023-04-01T10:19:01;97397.41;;;11.84;61.58
78751;BME280;68070;50.954;11.060;2023-04-01T10:22:06;97399.19;;;11.86;61.08
78751;BME280;68070;50.954;11.060;2023-04-01T10:25:33;97401.08;;;11.85;61.54
78751;BME280;68070;50.954;11.060;2023-04-01T10:37:59;97392.56;;;11.99;61.29
78751;BME280;68070;50.954;11.060;2023-04-01T10:47:31;97393.49;;;12.06;59.93
78751;BME280;68070;50.954;11.060;2023-04-01T10:56:59;97387.10;;;12.06;60.50
78751;BME280;68070;50.954;11.060;2023-04-01T11:00:40;97389.86;;;12.29;60.67
78751;BME280;68070;50.954;11.060;2023-04-01T11:16:42;97389.63;;;12.79;59.58
78751;BME280;68070;50.954;11.060;2023-04-01T11:23:00;97398.40;;;12.36;60.54
78751;BME280;68070;50.954;11.060;2023-04-01T11:26:02;97395.49;;;12.32;61.78
78751;BME280;68070;50.954;11.060;2023-04-01T11:29:36;97399.62;;;12.25;62.16
78751;BME280;68070;50.954;11.060;2023-04-01T11:39:00;97404.60;;;12.07;62.91
78751;BME280;68070;50.954;11.060;2023-04-01T11:42:45;97404.26;;;12.20;62.68
78751;BME280;68070;50.954;11.060;2023-04-01T11:46:11;97405.05;;;12.04;62.57
78751;BME280;68070;50.954;11.060;2023-04-01T11:49:24;97404.48;;;11.98;63.48
78751;BME280;68070;50.954;11.060;2023-04-01T11:59:13;97414.23;;;12.23;63.45
78751;BME280;68070;50.954;11.060;2023-04-01T12:08:25;97411.00;;;12.32;61.67
78751;BME280;68070;50.954;11.060;2023-04-01T12:11:20;97417.66;;;12.18;61.92
78751;BME280;68070;50.954;11.060;2023-04-01T12:14:15;97424.83;;;12.08;63.05
78751;BME280;68070;50.954;11.060;2023-04-01T12:17:09;97416.02;;;12.12;62.57
78751;BME280;68070;50.954;11.060;2023-04-01T12:32:25;97423.91;;;12.94;60.67
78751;BME280;68070;50.954;11.060;2023-04-01T12:35:20;97425.84;;;12.96;59.25
78751;BME280;68070;50.954;11.060;2023-04-01T12:41:14;97425.70;;;12.95;60.26
78751;BME280;68070;50.954;11.060;2023-04-01T12:47:29;97431.35;;;12.55;61.19
78751;BME280;68070;50.954;11.060;2023-04-01T12:50:19;97428.58;;;12.39;61.16
78751;BME280;68070;50.954;11.060;2023-04-01T12:56:09;97440.35;;;12.23;61.54
78751;BME280;68070;50.954;11.060;2023-04-01T13:08:55;97449.14;;;11.92;67.04
78751;BME280;68070;50.954;11.060;2023-04-01T13:27:51;97459.73;;;12.60;63.12
78751;BME280;68070;50.954;11.060;2023-04-01T13:43:03;97468.68;;;12.53;63.85
78751;BME280;68070;50.954;11.060;2023-04-01T13:51:45;97475.29;;;12.30;65.22
78751;BME280;68070;50.954;11.060;2023-04-01T13:58:19;97470.23;;;12.10;65.67
78751;BME280;68070;50.954;11.060;2023-04-01T14:01:47;97470.85;;;12.23;65.73
78751;BME280;68070;50.954;11.060;2023-04-01T14:08:00;97470.60;;;12.40;65.23
78751;BME280;68070;50.954;11.060;2023-04-01T14:11:15;97471.67;;;12.55;65.24
78751;BME280;68070;50.954;11.060;2023-04-01T14:26:03;97477.45;;;12.51;63.94
78751;BME280;68070;50.954;11.060;2023-04-01T14:48:34;97493.29;;;12.73;64.17
78751;BME280;68070;50.954;11.060;2023-04-01T14:51:35;97493.94;;;12.67;64.35
78751;BME280;68070;50.954;11.060;2023-04-01T14:54:36;97496.48;;;12.40;64.54
78751;BME280;68070;50.954;11.060;2023-04-01T14:57:28;97497.99;;;12.21;65.52
78751;BME280;68070;50.954;11.060;2023-04-01T15:00:14;97503.13;;;12.16;66.48
78751;BME280;68070;50.954;11.060;2023-04-01T15:03:16;97501.57;;;12.19;67.30
78751;BME280;68070;50.954;11.060;2023-04-01T15:15:20;97509.73;;;12.03;68.83
78751;BME280;68070;50.954;11.060;2023-04-01T15:19:01;97514.19;;;12.04;69.21
78751;BME280;68070;50.954;11.060;2023-04-01T15:24:10;97515.98;;;11.89;68.81
78751;BME280;68070;50.954;11.060;2023-04-01T15:30:27;97521.91;;;11.80;68.99
78751;BME280;68070;50.954;11.060;2023-04-01T15:36:41;97529.42;;;11.60;68.94
78751;BME280;68070;50.954;11.060;2023-04-01T15:58:03;97548.23;;;11.40;70.72
78751;BME280;68070;50.954;11.060;2023-04-01T16:01:02;97553.27;;;11.27;71.42
78751;BME280;68070;50.954;11.060;2023-04-01T16:03:58;97555.38;;;11.28;71.73
78751;BME280;68070;50.954;11.060;2023-04-01T16:06:52;97558.87;;;11.32;72.27
78751;BME280;68070;50.954;11.060;2023-04-01T16:12:41;97571.14;;;11.34;72.73
78751;BME280;68070;50.954;11.060;2023-04-01T16:27:35;97581.41;;;10.92;74.22
78751;BME280;68070;50.954;11.060;2023-04-01T16:31:15;97585.55;;;10.91;74.75
78751;BME280;68070;50.954;11.060;2023-04-01T16:37:15;97588.89;;;10.70;75.94
78751;BME280;68070;50.954;11.060;2023-04-01T16:40:11;97594.19;;;10.60;76.12
78751;BME280;68070;50.954;11.060;2023-04-01T16:49:31;97603.75;;;10.46;76.46
78751;BME280;68070;50.954;11.060;2023-04-01T16:55:19;97611.02;;;10.40;76.92
78751;BME280;68070;50.954;11.060;2023-04-01T16:58:06;97616.98;;;10.38;76.32
78751;BME280;68070;50.954;11.060;2023-04-01T17:01:04;97621.11;;;10.43;76.46
78751;BME280;68070;50.954;11.060;2023-04-01T17:04:00;97625.55;;;10.44;76.45
78751;BME280;68070;50.954;11.060;2023-04-01T17:07:27;97628.52;;;10.47;76.29
78751;BME280;68070;50.954;11.060;2023-04-01T17:13:41;97638.70;;;10.39;77.82
78751;BME280;68070;50.954;11.060;2023-04-01T17:17:05;97642.59;;;10.37;76.58
78751;BME280;68070;50.954;11.060;2023-04-01T17:22:52;97645.73;;;10.29;76.55
78751;BME280;68070;50.954;11.060;2023-04-01T17:28:53;97652.66;;;10.29;76.89
78751;BME280;68070;50.954;11.060;2023-04-01T17:34:53;97658.09;;;10.20;76.92
78751;BME280;68070;50.954;11.060;2023-04-01T17:38:13;97661.11;;;10.20;77.18
78751;BME280;68070;50.954;11.060;2023-04-01T17:41:19;97666.87;;;10.25;77.40
78751;BME280;68070;50.954;11.060;2023-04-01T17:47:17;97682.85;;;10.12;78.25
78751;BME280;68070;50.954;11.060;2023-04-01T17:50:22;97682.34;;;10.06;77.88
78751;BME280;68070;50.954;11.060;2023-04-01T17:53:39;97688.59;;;10.06;79.48
78751;BME280;68070;50.954;11.060;2023-04-01T17:56:45;97686.27;;;9.93;80.28
78751;BME280;68070;50.954;11.060;2023-04-01T17:59:38;97689.34;;;9.81;79.81
78751;BME280;68070;50.954;11.060;2023-04-01T18:02:26;97699.44;;;9.75;79.78
78751;BME280;68070;50.954;11.060;2023-04-01T18:05:24;97701.23;;;9.73;80.63
78751;BME280;68070;50.954;11.060;2023-04-01T18:08:15;97705.48;;;9.69;80.59
78751;BME280;68070;50.954;11.060;2023-04-01T18:21:12;97723.54;;;9.64;81.21
78751;BME280;68070;50.954;11.060;2023-04-01T18:24:14;97731.63;;;9.55;81.09
78751;BME280;68070;50.954;11.060;2023-04-01T18:27:11;97735.57;;;9.51;81.41
78751;BME280;68070;50.954;11.060;2023-04-01T18:30:13;97737.16;;;9.51;81.19
78751;BME280;68070;50.954;11.060;2023-04-01T18:33:09;97740.41;;;9.51;81.74
78751;BME280;68070;50.954;11.060;2023-04-01T18:36:16;97745.98;;;9.46;81.68
78751;BME280;68070;50.954;11.060;2023-04-01T18:45:27;97757.56;;;9.42;81.81
78751;BME280;68070;50.954;11.060;2023-04-01T18:51:19;97772.95;;;9.40;81.63
78751;BME280;68070;50.954;11.060;2023-04-01T18:57:07;97777.00;;;9.35;85.00
78751;BME280;68070;50.954;11.060;2023-04-01T19:06:06;97789.94;;;9.19;84.74
78751;BME280;68070;50.954;11.060;2023-04-01T19:08:52;97794.11;;;9.20;85.08
78751;BME280;68070;50.954;11.060;2023-04-01T19:11:56;97799.55;;;9.17;84.55
78751;BME280;68070;50.954;11.060;2023-04-01T19:21:21;97810.24;;;9.26;84.02
78751;BME280;68070;50.954;11.060;2023-04-01T19:36:15;97819.94;;;9.25;83.87
78751;BME280;68070;50.954;11.060;2023-04-01T19:51:52;97839.44;;;9.21;84.93
78751;BME280;68070;50.954;11.060;2023-04-01T19:58:09;97844.12;;;9.21;84.71
78751;BME280;68070;50.954;11.060;2023-04-01T20:01:00;97846.73;;;9.20;84.45
78751;BME280;68070;50.954;11.060;2023-04-01T20:03:52;97854.10;;;9.20;84.25
78751;BME280;68070;50.954;11.060;2023-04-01T20:06:57;97856.98;;;9.24;84.94
78751;BME280;68070;50.954;11.060;2023-04-01T20:10:06;97865.72;;;9.24;84.73
78751;BME280;68070;50.954;11.060;2023-04-01T20:13:13;97878.96;;;9.22;84.58
78751;BME280;68070;50.954;11.060;2023-04-01T20:16:07;97881.85;;;9.22;84.50
78751;BME280;68070;50.954;11.060;2023-04-01T20:18:56;97886.10;;;9.20;84.18
78751;BME280;68070;50.954;11.060;2023-04-01T20:21:46;97891.15;;;9.23;84.28
78751;BME280;68070;50.954;11.060;2023-04-01T20:24:42;97895.43;;;9.25;84.65
78751;BME280;68070;50.954;11.060;2023-04-01T20:27:33;97902.84;;;9.23;84.86
78751;BME280;68070;50.954;11.060;2023-04-01T20:49:39;97922.25;;;9.10;84.28
78751;BME280;68070;50.954;11.060;2023-04-01T20:52:32;97923.16;;;9.17;84.66
78751;BME280;68070;50.954;11.060;2023-04-01T20:55:36;97924.90;;;9.19;85.05
78751;BME280;68070;50.954;11.060;2023-04-01T20:58:31;97924.06;;;9.16;84.87
78751;BME280;68070;50.954;11.060;2023-04-01T21:01:47;97929.89;;;9.19;84.59
78751;BME280;68070;50.954;11.060;2023-04-01T21:07:48;97936.48;;;9.27;84.83
78751;BME280;68070;50.954;11.060;2023-04-01T21:10:43;97943.80;;;9.30;84.71
78751;BME280;68070;50.954;11.060;2023-04-01T21:16:56;97953.30;;;9.37;84.27
78751;BME280;68070;50.954;11.060;2023-04-01T21:20:17;97957.30;;;9.38;84.66
78751;BME280;68070;50.954;11.060;2023-04-01T21:26:26;97961.63;;;9.35;84.10
78751;BME280;68070;50.954;11.060;2023-04-01T21:42:10;97989.83;;;9.02;86.54
78751;BME280;68070;50.954;11.060;2023-04-01T21:45:27;97992.05;;;8.91;87.41
78751;BME280;68070;50.954;11.060;2023-04-01T21:54:50;98010.27;;;8.81;87.16
78751;BME280;68070;50.954;11.060;2023-04-01T22:00:51;98016.21;;;8.59;87.29
78751;BME280;68070;50.954;11.060;2023-04-01T22:06:42;98024.06;;;8.52;86.94
78751;BME280;68070;50.954;11.060;2023-04-01T22:12:46;98033.17;;;8.33;86.92
78751;BME280;68070;50.954;11.060;2023-04-01T22:18:56;98037.02;;;8.23;87.43
78751;BME280;68070;50.954;11.060;2023-04-01T22:21:52;98047.39;;;8.13;87.75
78751;BME280;68070;50.954;11.060;2023-04-01T22:30:39;98064.55;;;8.09;87.57
78751;BME280;68070;50.954;11.060;2023-04-01T22:33:38;98069.73;;;8.07;87.57
78751;BME280;68070;50.954;11.060;2023-04-01T22:42:35;98081.77;;;8.04;88.09
78751;BME280;68070;50.954;11.060;2023-04-01T22:45:56;98086.89;;;8.02;88.69
78751;BME280;68070;50.954;11.060;2023-04-01T22:51:47;98098.05;;;8.02;88.87
78751;BME280;68070;50.954;11.060;2023-04-01T22:54:37;98107.87;;;8.01;89.14
78751;BME280;68070;50.954;11.060;2023-04-01T22:57:42;98111.48;;;7.89;88.80
78751;BME280;68070;50.954;11.060;2023-04-01T23:00:35;98121.83;;;7.72;88.79
78751;BME280;68070;50.954;11.060;2023-04-01T23:03:24;98129.91;;;7.53;89.00
78751;BME280;68070;50.954;11.060;2023-04-01T23:06:17;98128.63;;;7.51;88.94
78751;BME280;68070;50.954;11.060;2023-04-01T23:09:25;98133.05;;;7.34;89.41
78751;BME280;68070;50.954;11.060;2023-04-01T23:12:12;98142.70;;;7.36;89.38
78751;BME280;68070;50.954;11.060;2023-04-01T23:15:01;98151.41;;;7.30;89.28
78751;BME280;68070;50.954;11.060;2023-04-01T23:18:17;98157.42;;;7.17;89.15
78751;BME280;68070;50.954;11.060;2023-04-01T23:21:17;98166.15;;;7.11;89.32
78751;BME280;68070;50.954;11.060;2023-04-01T23:27:18;98175.45;;;6.98;89.18
78751;BME280;68070;50.954;11.060;2023-04-01T23:33:29;98191.23;;;6.81;89.42
78751;BME280;68070;50.954;11.060;2023-04-01T23:36:14;98197.90;;;6.81;89.34
78751;BME280;68070;50.954;11.060;2023-04-01T23:39:05;98201.23;;;6.77;89.56
78751;BME280;68070;50.954;11.060;2023-04-01T23:41:57;98205.86;;;6.71;89.90
78751;BME280;68070;50.954;11.060;2023-04-01T23:44:43;98219.98;;;6.54;89.93
78751;BME280;68070;50.954;11.060;2023-04-01T23:47:33;98225.45;;;6.52;89.32
78751;BME280;68070;50.954;11.060;2023-04-01T23:50:20;98234.48;;;6.39;89.54
78751;BME280;68070;50.954;11.060;2023-04-01T23:53:23;98237.07;;;6.32;89.42
78751;BME280;68070;50.954;11.060;2023-04-01T23:56:09;98244.23;;;6.29;89.36
78751;BME280;68070;50.954;11.060;2023-04-01T23:58:53;98247.27;;;6.23;89.58
